Time;durP1;ratioP1;P1;durP2;ratioP2;P2;SDS_P1;SDS_P2;PMS_P1;PMS_P2;Temp;Humidity;BMP_temperature;BMP_pressure;BME280_temperature;BME280_humidity;BME280_pressure;Samples;Min_cycle;Max_cycle;Signal;HPM_P1;HPM_P2
2023/09/24 00:01:00;;;;;;;7.30;4.00;;;17.40;99.90;;;;;;5067836;28;20048;-81
2023/09/24 00:03:27;;;;;;;8.20;4.47;;;17.40;99.90;;;;;;5078603;28;20052;-81
2023/09/24 00:05:58;;;;;;;5.45;4.28;;;17.30;99.90;;;;;;5083594;28;20056;-81
2023/09/24 00:08:25;;;;;;;7.30;4.05;;;17.20;99.90;;;;;;5091999;28;20048;-81
2023/09/24 00:10:52;;;;;;;7.55;4.40;;;17.30;99.90;;;;;;5058861;28;20147;-81
2023/09/24 00:13:22;;;;;;;6.43;4.40;;;17.20;99.90;;;;;;5084798;28;20127;-81
2023/09/24 00:15:50;;;;;;;5.15;3.63;;;17.20;99.90;;;;;;5084775;28;20068;-81
2023/09/24 00:18:19;;;;;;;6.65;4.38;;;17.30;99.90;;;;;;5083872;28;20097;-81
2023/09/24 00:20:47;;;;;;;10.85;4.28;;;17.30;99.90;;;;;;5078293;28;20059;-81
2023/09/24 00:23:14;;;;;;;5.80;4.00;;;17.30;99.90;;;;;;5083233;28;20113;-81
2023/09/24 00:25:44;;;;;;;6.05;4.18;;;17.30;99.90;;;;;;5068022;28;20067;-81
2023/09/24 00:28:11;;;;;;;6.65;3.78;;;17.20;99.90;;;;;;5072786;28;20056;-81
2023/09/24 00:30:42;;;;;;;7.32;3.58;;;17.20;99.90;;;;;;5067107;28;22498;-81
2023/09/24 00:33:09;;;;;;;7.18;4.00;;;17.20;99.90;;;;;;5081000;28;20070;-81
2023/09/24 00:35:37;;;;;;;7.45;3.75;;;17.30;99.90;;;;;;5086626;28;20513;-81
2023/09/24 00:38:07;;;;;;;7.28;4.05;;;17.30;99.90;;;;;;5077675;28;20120;-81
2023/09/24 00:40:34;;;;;;;5.07;3.67;;;17.30;99.90;;;;;;5060325;28;20591;-81
2023/09/24 00:43:02;;;;;;;5.55;3.70;;;17.30;99.90;;;;;;5066522;28;20927;-81
2023/09/24 00:45:29;;;;;;;5.97;3.97;;;17.30;99.90;;;;;;5072219;28;20133;-81
2023/09/24 00:47:57;;;;;;;6.70;4.78;;;17.30;99.90;;;;;;5083676;28;20110;-80
2023/09/24 00:50:32;;;;;;;5.35;3.97;;;17.30;99.90;;;;;;5059838;28;20047;-81
2023/09/24 00:53:01;;;;;;;6.47;4.53;;;17.20;99.90;;;;;;5074270;28;20048;-81
2023/09/24 00:55:31;;;;;;;6.53;4.10;;;17.30;99.90;;;;;;5062941;28;20177;-81
2023/09/24 00:57:59;;;;;;;5.28;3.92;;;17.20;99.90;;;;;;5078845;28;20064;-81
2023/09/24 01:00:30;;;;;;;5.10;4.07;;;17.20;99.90;;;;;;5068805;28;20520;-81
2023/09/24 01:02:58;;;;;;;6.70;3.80;;;17.30;99.90;;;;;;5077204;28;20048;-81
2023/09/24 01:05:27;;;;;;;5.45;3.85;;;17.30;99.90;;;;;;5067856;28;20875;-81
2023/09/24 01:07:54;;;;;;;9.90;3.85;;;17.30;99.90;;;;;;5074349;28;20044;-81
2023/09/24 01:10:23;;;;;;;5.07;3.67;;;17.30;99.90;;;;;;5062280;28;20567;-80
2023/09/24 01:12:55;;;;;;;6.63;4.35;;;17.30;99.90;;;;;;5089858;28;20106;-80
2023/09/24 01:15:24;;;;;;;4.85;3.60;;;17.30;99.90;;;;;;5084145;28;20063;-80
2023/09/24 01:17:52;;;;;;;6.82;3.80;;;17.30;99.90;;;;;;5080606;28;22769;-80
2023/09/24 01:20:22;;;;;;;5.93;3.90;;;17.30;99.90;;;;;;5072820;28;20052;-80
2023/09/24 01:22:51;;;;;;;5.88;3.80;;;17.20;99.90;;;;;;5072069;28;20406;-80
2023/09/24 01:25:18;;;;;;;5.10;3.50;;;17.30;99.90;;;;;;5082571;28;20921;-79
2023/09/24 01:27:46;;;;;;;5.35;3.22;;;17.20;99.90;;;;;;5065936;28;20079;-79
2023/09/24 01:30:13;;;;;;;4.63;3.60;;;16.90;99.90;;;;;;5062670;28;20137;-80
2023/09/24 01:32:41;;;;;;;8.13;3.90;;;17.00;99.90;;;;;;5080062;28;20051;-79
2023/09/24 01:35:08;;;;;;;5.15;4.15;;;16.90;99.90;;;;;;5091079;28;20498;-79
2023/09/24 01:37:36;;;;;;;4.97;3.75;;;16.80;99.90;;;;;;5066624;28;20067;-80
2023/09/24 01:40:18;;;;;;;6.82;3.80;;;16.90;99.90;;;;;;5080506;28;20063;-80
2023/09/24 01:42:46;;;;;;;5.60;3.47;;;17.00;99.90;;;;;;5061109;28;20044;-79
2023/09/24 01:45:15;;;;;;;5.00;3.83;;;17.00;99.90;;;;;;5076942;28;20051;-79
2023/09/24 01:47:44;;;;;;;4.50;3.83;;;16.90;99.90;;;;;;5076787;28;20040;-80
2023/09/24 01:50:11;;;;;;;4.45;3.25;;;16.90;99.90;;;;;;5061549;28;20810;-80
2023/09/24 01:52:39;;;;;;;4.22;3.40;;;16.90;99.90;;;;;;5067685;28;20043;-80
2023/09/24 01:55:06;;;;;;;4.15;3.45;;;17.00;99.90;;;;;;5074519;28;20079;-80
2023/09/24 01:57:33;;;;;;;4.97;3.67;;;17.10;99.90;;;;;;5055367;28;20044;-80
2023/09/24 02:00:06;;;;;;;6.00;3.83;;;17.00;99.90;;;;;;5081713;28;20158;-80
2023/09/24 02:02:33;;;;;;;5.70;3.90;;;17.00;99.90;;;;;;5090924;28;20076;-80
2023/09/24 02:05:04;;;;;;;5.88;3.53;;;16.90;99.90;;;;;;5082855;28;20060;-80
2023/09/24 02:07:31;;;;;;;5.72;4.40;;;16.90;99.90;;;;;;5059581;28;20140;-80
2023/09/24 02:09:58;;;;;;;5.60;4.13;;;16.90;99.90;;;;;;5080623;28;20226;-80
2023/09/24 02:12:25;;;;;;;6.43;4.53;;;16.90;99.90;;;;;;5075298;28;20048;-80
2023/09/24 02:14:53;;;;;;;5.05;3.88;;;16.80;99.90;;;;;;5065640;28;20047;-80
2023/09/24 02:17:21;;;;;;;6.05;3.80;;;16.80;99.90;;;;;;5081380;28;20064;-80
2023/09/24 02:19:48;;;;;;;6.30;4.07;;;16.80;99.90;;;;;;5084556;28;20052;-80
2023/09/24 02:22:17;;;;;;;5.38;3.90;;;16.80;99.90;;;;;;5075533;28;20056;-81
2023/09/24 02:24:44;;;;;;;6.97;4.50;;;16.80;99.90;;;;;;5061717;28;20129;-81
2023/09/24 02:27:11;;;;;;;6.90;4.88;;;16.80;99.90;;;;;;5066107;28;20879;-81
2023/09/24 02:29:38;;;;;;;6.60;4.45;;;16.80;99.90;;;;;;5081640;28;20080;-81
2023/09/24 02:32:06;;;;;;;6.35;4.25;;;16.80;99.90;;;;;;5077296;28;20409;-81
2023/09/24 02:34:33;;;;;;;6.85;4.75;;;16.80;99.90;;;;;;5058314;28;20053;-81
2023/09/24 02:37:00;;;;;;;7.15;4.88;;;16.80;99.90;;;;;;5084695;28;20047;-81
2023/09/24 02:39:27;;;;;;;6.82;4.55;;;16.80;99.90;;;;;;5055826;28;20051;-81
2023/09/24 02:41:54;;;;;;;6.53;4.45;;;16.70;99.90;;;;;;5078485;28;20103;-81
2023/09/24 02:44:22;;;;;;;6.38;4.57;;;16.70;99.90;;;;;;5057939;28;20036;-81
2023/09/24 02:46:49;;;;;;;6.60;4.78;;;16.70;99.90;;;;;;5061426;28;20046;-81
2023/09/24 02:49:16;;;;;;;6.57;4.40;;;16.80;99.90;;;;;;5065956;28;20075;-82
2023/09/24 02:51:44;;;;;;;8.85;4.55;;;16.80;99.90;;;;;;5086586;28;20052;-81
2023/09/24 02:54:11;;;;;;;6.88;4.47;;;16.80;99.90;;;;;;5078780;28;20036;-81
2023/09/24 02:56:39;;;;;;;6.72;4.78;;;16.80;99.90;;;;;;5058630;28;20118;-81
2023/09/24 02:59:06;;;;;;;11.05;6.03;;;16.80;99.90;;;;;;5076921;28;20110;-81
2023/09/24 03:01:35;;;;;;;7.55;5.22;;;16.80;99.90;;;;;;5081045;28;20060;-81
2023/09/24 03:04:02;;;;;;;9.38;5.38;;;16.80;99.90;;;;;;5081574;28;20406;-81
2023/09/24 03:06:31;;;;;;;7.88;5.00;;;16.80;99.90;;;;;;5067239;28;20048;-81
2023/09/24 03:08:58;;;;;;;7.38;4.90;;;16.80;99.90;;;;;;5073336;28;20054;-81
2023/09/24 03:11:25;;;;;;;8.02;5.65;;;16.70;99.90;;;;;;5080096;28;20052;-79
2023/09/24 03:13:52;;;;;;;8.30;6.10;;;16.70;99.90;;;;;;5085019;28;20059;-80
2023/09/24 03:16:19;;;;;;;10.15;5.50;;;16.50;99.90;;;;;;5074963;28;22385;-81
2023/09/24 03:18:47;;;;;;;7.60;5.32;;;16.50;99.90;;;;;;5074616;28;20044;-80
2023/09/24 03:21:15;;;;;;;7.80;5.43;;;16.50;99.90;;;;;;5076374;28;20049;-81
2023/09/24 03:23:42;;;;;;;9.50;6.25;;;16.50;99.90;;;;;;5080039;28;20098;-81
2023/09/24 03:26:14;;;;;;;10.27;5.25;;;16.60;99.90;;;;;;5067689;28;20131;-81
2023/09/24 03:28:42;;;;;;;7.55;5.43;;;16.60;99.90;;;;;;5079341;28;20602;-81
2023/09/24 03:31:16;;;;;;;7.85;5.60;;;16.70;99.90;;;;;;5069077;28;20506;-81
2023/09/24 03:33:43;;;;;;;9.63;5.47;;;16.70;99.90;;;;;;5093039;28;20419;-82
2023/09/24 03:36:11;;;;;;;7.10;5.07;;;16.70;99.90;;;;;;5064164;28;22426;-82
2023/09/24 03:38:38;;;;;;;9.30;5.63;;;16.80;99.90;;;;;;5077323;28;20051;-81
2023/09/24 03:41:05;;;;;;;9.20;5.38;;;16.70;99.90;;;;;;5062637;28;20055;-81
2023/09/24 03:43:33;;;;;;;9.43;5.80;;;16.80;99.90;;;;;;5082759;28;22567;-81
2023/09/24 03:46:00;;;;;;;8.80;5.28;;;16.80;99.90;;;;;;5077829;28;20127;-81
2023/09/24 03:48:27;;;;;;;8.02;4.72;;;16.80;99.90;;;;;;5091976;28;20056;-81
2023/09/24 03:50:55;;;;;;;8.50;5.40;;;16.80;99.90;;;;;;5078295;28;20072;-81
2023/09/24 03:53:22;;;;;;;9.18;5.88;;;16.80;99.90;;;;;;5079443;28;20453;-81
2023/09/24 03:55:50;;;;;;;10.57;5.60;;;16.80;99.90;;;;;;5062312;28;20048;-81
2023/09/24 03:58:17;;;;;;;8.55;5.30;;;16.80;99.90;;;;;;5077089;28;22411;-81
2023/09/24 04:00:45;;;;;;;9.48;5.85;;;16.70;99.90;;;;;;5084325;28;20055;-80
2023/09/24 04:03:14;;;;;;;9.10;5.50;;;16.70;99.90;;;;;;5092326;28;20099;-82
2023/09/24 04:05:41;;;;;;;8.35;6.25;;;16.70;99.90;;;;;;5074268;28;20171;-80
2023/09/24 04:08:09;;;;;;;9.48;5.80;;;16.60;99.90;;;;;;5061998;28;20137;-80
2023/09/24 04:10:36;;;;;;;9.48;5.88;;;16.50;99.90;;;;;;5082964;28;20059;-80
2023/09/24 04:13:03;;;;;;;8.48;5.60;;;16.50;99.90;;;;;;5079422;28;20045;-79
2023/09/24 04:15:31;;;;;;;10.63;5.40;;;16.50;99.90;;;;;;5089254;28;20873;-80
2023/09/24 04:17:59;;;;;;;8.77;5.40;;;16.60;99.90;;;;;;5080188;28;22461;-79
2023/09/24 04:20:32;;;;;;;7.70;5.20;;;16.50;99.90;;;;;;5066171;28;20036;-80
2023/09/24 04:22:59;;;;;;;11.23;5.03;;;16.50;99.90;;;;;;5082441;28;20049;-80
2023/09/24 04:25:26;;;;;;;9.70;5.50;;;16.60;99.90;;;;;;5058810;28;21041;-79
2023/09/24 04:27:55;;;;;;;7.70;4.63;;;16.60;99.90;;;;;;5066241;28;20742;-81
2023/09/24 04:30:23;;;;;;;7.90;4.63;;;16.50;99.90;;;;;;5078631;28;20074;-80
2023/09/24 04:32:51;;;;;;;7.65;4.70;;;16.50;99.90;;;;;;5076112;28;20555;-80
2023/09/24 04:35:20;;;;;;;9.13;5.53;;;16.50;99.90;;;;;;5076523;28;20048;-81
2023/09/24 04:37:48;;;;;;;7.03;4.53;;;16.60;99.90;;;;;;5064145;28;20491;-81
2023/09/24 04:40:16;;;;;;;8.23;5.10;;;16.60;99.90;;;;;;5085570;28;20433;-80
2023/09/24 04:42:45;;;;;;;7.20;4.82;;;16.60;99.90;;;;;;5075614;28;20057;-81
2023/09/24 04:45:14;;;;;;;8.40;4.60;;;16.70;99.90;;;;;;5079022;28;20047;-81
2023/09/24 04:47:42;;;;;;;10.00;4.68;;;16.70;99.90;;;;;;5068506;28;20501;-81
2023/09/24 04:50:12;;;;;;;6.38;4.75;;;16.70;99.90;;;;;;5069718;28;20049;-80
2023/09/24 04:52:41;;;;;;;7.25;4.70;;;16.70;99.90;;;;;;5090151;28;20044;-80
2023/09/24 04:55:09;;;;;;;7.03;4.40;;;16.60;99.90;;;;;;5084890;28;20050;-80
2023/09/24 04:57:37;;;;;;;6.80;4.45;;;16.60;99.90;;;;;;5089198;28;20036;-80
2023/09/24 05:00:05;;;;;;;7.35;5.13;;;16.60;99.90;;;;;;5083897;28;20051;-79
2023/09/24 05:02:32;;;;;;;8.23;4.97;;;16.60;99.90;;;;;;5069747;28;20044;-79
2023/09/24 05:04:59;;;;;;;9.75;4.43;;;16.60;99.90;;;;;;5069886;28;20143;-79
2023/09/24 05:07:27;;;;;;;8.30;5.10;;;16.60;99.90;;;;;;5080203;28;20044;-78
2023/09/24 05:09:54;;;;;;;9.68;5.20;;;16.60;99.90;;;;;;5078368;28;20058;-79
2023/09/24 05:12:22;;;;;;;7.70;4.65;;;16.60;99.90;;;;;;5058310;28;20048;-79
2023/09/24 05:14:49;;;;;;;8.68;4.53;;;16.60;99.90;;;;;;5090842;28;20044;-78
2023/09/24 05:17:17;;;;;;;8.65;5.05;;;16.60;99.90;;;;;;5080115;28;20105;-79
2023/09/24 05:19:44;;;;;;;9.18;4.22;;;16.70;99.90;;;;;;5060269;28;20044;-79
2023/09/24 05:22:11;;;;;;;7.63;4.85;;;16.70;99.90;;;;;;5071463;28;20183;-78
2023/09/24 05:24:38;;;;;;;8.07;4.82;;;16.60;99.90;;;;;;5076574;28;20417;-80
2023/09/24 05:27:06;;;;;;;7.13;4.45;;;16.60;99.90;;;;;;5073201;28;20453;-80
2023/09/24 05:29:33;;;;;;;7.50;3.80;;;16.60;99.90;;;;;;5078027;28;20159;-78
2023/09/24 05:32:02;;;;;;;8.20;3.78;;;16.60;99.90;;;;;;5096318;28;20416;-79
2023/09/24 05:34:29;;;;;;;6.22;3.65;;;16.60;99.90;;;;;;5060626;28;20040;-77
2023/09/24 05:36:56;;;;;;;5.40;3.60;;;16.70;99.90;;;;;;5078595;28;20051;-79
2023/09/24 05:39:23;;;;;;;6.60;3.55;;;16.70;99.90;;;;;;5080024;28;20503;-79
2023/09/24 05:41:50;;;;;;;5.07;2.25;;;16.70;99.90;;;;;;5074972;28;20059;-77
2023/09/24 05:44:17;;;;;;;4.05;2.35;;;16.70;99.90;;;;;;5064085;28;20066;-79
2023/09/24 05:46:44;;;;;;;2.40;1.75;;;16.70;99.90;;;;;;5090310;28;20783;-78
2023/09/24 05:49:12;;;;;;;2.60;1.73;;;16.70;99.90;;;;;;5077149;28;20047;-78
2023/09/24 05:51:39;;;;;;;2.50;1.65;;;16.70;99.90;;;;;;5079550;28;20068;-78
2023/09/24 05:54:07;;;;;;;2.20;1.90;;;16.70;99.90;;;;;;5063692;28;20079;-78
2023/09/24 05:56:34;;;;;;;3.30;1.42;;;16.70;99.90;;;;;;5064835;28;20044;-76
2023/09/24 05:59:02;;;;;;;3.80;1.90;;;16.80;99.90;;;;;;5086127;28;20048;-79
2023/09/24 06:01:30;;;;;;;3.33;1.98;;;16.80;99.90;;;;;;5073449;28;20053;-81
2023/09/24 06:03:57;;;;;;;3.30;2.38;;;16.80;99.90;;;;;;5072919;28;20498;-80
2023/09/24 06:06:25;;;;;;;4.65;2.22;;;16.80;99.90;;;;;;5075823;28;20058;-81
2023/09/24 06:08:53;;;;;;;3.55;2.03;;;16.80;99.90;;;;;;5091595;27;20076;-81
2023/09/24 06:11:20;;;;;;;4.22;1.63;;;16.80;99.90;;;;;;5058772;28;20119;-80
2023/09/24 06:13:47;;;;;;;2.10;1.30;;;16.80;99.90;;;;;;5092654;27;20119;-81
2023/09/24 06:16:15;;;;;;;2.88;1.35;;;16.80;99.90;;;;;;5075181;28;20143;-81
2023/09/24 06:18:42;;;;;;;2.65;1.50;;;16.90;99.90;;;;;;5075690;28;20482;-82
2023/09/24 06:21:19;;;;;;;2.70;1.02;;;16.70;99.90;;;;;;5078794;28;20044;-82
2023/09/24 06:23:46;;;;;;;2.10;0.82;;;16.80;99.90;;;;;;5081393;28;20059;-82
2023/09/24 06:26:13;;;;;;;3.92;0.90;;;16.70;99.90;;;;;;5074057;28;20075;-82
2023/09/24 06:28:40;;;;;;;1.55;0.60;;;16.80;99.90;;;;;;5063332;28;20055;-80
2023/09/24 06:31:31;;;;;;;2.42;0.80;;;16.80;99.90;;;;;;5083453;28;20041;-82
2023/09/24 06:33:59;;;;;;;4.07;0.80;;;16.80;99.90;;;;;;5072077;28;20129;-80
2023/09/24 06:36:26;;;;;;;1.88;0.60;;;16.80;99.90;;;;;;5079113;28;20069;-79
2023/09/24 06:38:54;;;;;;;3.00;0.80;;;16.70;99.90;;;;;;5090590;28;20040;-81
2023/09/24 06:41:22;;;;;;;1.58;0.60;;;16.70;99.90;;;;;;5081604;28;22546;-82
2023/09/24 06:43:49;;;;;;;8.52;2.42;;;16.80;99.90;;;;;;5087380;28;20417;-80
2023/09/24 06:46:16;;;;;;;5.72;1.85;;;16.70;99.90;;;;;;5078760;28;20071;-79
2023/09/24 06:48:43;;;;;;;3.45;0.52;;;16.70;99.90;;;;;;5074258;28;20499;-82
2023/09/24 06:51:11;;;;;;;2.10;0.43;;;16.70;99.90;;;;;;5075910;28;20052;-78
2023/09/24 06:53:39;;;;;;;2.47;0.40;;;16.60;99.90;;;;;;5086063;28;22627;-77
2023/09/24 06:56:07;;;;;;;2.40;0.47;;;16.70;99.90;;;;;;5084440;28;20072;-79
2023/09/24 06:58:35;;;;;;;1.48;0.45;;;16.70;99.90;;;;;;5082941;28;22570;-79
2023/09/24 07:01:03;;;;;;;2.20;0.60;;;16.70;99.90;;;;;;5074225;28;20060;-78
2023/09/24 07:03:31;;;;;;;1.67;0.40;;;16.70;99.90;;;;;;5083340;28;20139;-78
2023/09/24 07:05:59;;;;;;;2.20;0.50;;;16.80;99.90;;;;;;5084991;28;20046;-80
2023/09/24 07:08:27;;;;;;;1.02;0.40;;;16.80;99.90;;;;;;5083238;28;20534;-80
2023/09/24 07:11:27;;;;;;;1.30;0.60;;;16.80;99.90;;;;;;5064508;28;20071;-81
2023/09/24 07:13:55;;;;;;;1.80;0.50;;;16.80;99.90;;;;;;5089481;27;20036;-80
2023/09/24 07:16:24;;;;;;;1.60;0.70;;;16.80;99.90;;;;;;5076287;28;20047;-79
2023/09/24 07:18:52;;;;;;;1.67;0.80;;;16.80;99.90;;;;;;5094083;27;20049;-79
2023/09/24 07:21:22;;;;;;;2.30;0.93;;;16.80;99.90;;;;;;5065916;28;20044;-81
2023/09/24 07:24:02;;;;;;;1.88;0.85;;;16.80;99.90;;;;;;5088083;28;20048;-80
2023/09/24 07:26:29;;;;;;;2.25;0.70;;;16.80;99.90;;;;;;5075889;28;22489;-80
2023/09/24 07:28:59;;;;;;;1.30;0.60;;;16.80;99.90;;;;;;5077105;28;20060;-80
2023/09/24 07:31:26;;;;;;;1.73;1.17;;;16.90;99.90;;;;;;5084346;28;21014;-80
2023/09/24 07:33:58;;;;;;;1.83;1.27;;;16.90;99.90;;;;;;5081345;28;20045;-80
2023/09/24 07:36:26;;;;;;;2.00;1.20;;;16.90;99.90;;;;;;5074382;28;20126;-79
2023/09/24 07:38:56;;;;;;;5.18;1.23;;;16.90;99.90;;;;;;5076553;28;20040;-79
2023/09/24 07:41:23;;;;;;;2.22;1.40;;;16.90;99.90;;;;;;5075829;28;20046;-80
2023/09/24 07:43:51;;;;;;;3.58;1.70;;;16.80;99.90;;;;;;5069887;28;20597;-80
2023/09/24 07:46:19;;;;;;;4.57;2.03;;;16.90;99.90;;;;;;5067585;28;20058;-80
2023/09/24 07:48:48;;;;;;;3.85;1.73;;;16.90;99.90;;;;;;5067006;28;20063;-80
2023/09/24 07:51:16;;;;;;;3.17;1.92;;;16.90;99.90;;;;;;5078715;28;20059;-80
2023/09/24 07:53:50;;;;;;;3.85;1.75;;;16.90;99.90;;;;;;5081902;28;20044;-80
2023/09/24 07:56:17;;;;;;;3.22;2.08;;;16.90;99.90;;;;;;5083066;28;20075;-81
2023/09/24 07:58:45;;;;;;;3.25;2.30;;;16.90;99.90;;;;;;5073307;28;20052;-81
2023/09/24 08:01:14;;;;;;;4.90;2.67;;;16.90;99.90;;;;;;5077706;28;20055;-80
2023/09/24 08:03:44;;;;;;;3.90;1.92;;;16.90;99.90;;;;;;5081673;28;20076;-80
2023/09/24 08:06:12;;;;;;;2.35;1.92;;;16.90;99.90;;;;;;5081959;28;20052;-81
2023/09/24 08:08:39;;;;;;;3.90;2.17;;;16.90;99.90;;;;;;5076904;28;20047;-79
2023/09/24 08:11:22;;;;;;;8.10;2.30;;;16.90;99.90;;;;;;5074628;28;20052;-81
2023/09/24 08:13:49;;;;;;;3.17;2.38;;;17.00;99.90;;;;;;5058781;28;20044;-80
2023/09/24 08:16:20;;;;;;;3.63;2.38;;;17.00;99.90;;;;;;5076990;28;20067;-80
2023/09/24 08:18:49;;;;;;;4.88;2.63;;;17.00;99.90;;;;;;5064273;28;22504;-81
2023/09/24 08:21:19;;;;;;;5.20;2.13;;;17.00;99.90;;;;;;5084143;28;20044;-80
2023/09/24 08:23:46;;;;;;;4.18;2.53;;;17.00;99.90;;;;;;5082063;28;20155;-81
2023/09/24 08:26:14;;;;;;;5.22;2.65;;;17.00;99.90;;;;;;5083824;28;20045;-81
2023/09/24 08:28:42;;;;;;;2.80;1.90;;;17.00;99.90;;;;;;5066081;28;20660;-82
2023/09/24 08:31:12;;;;;;;3.25;2.15;;;17.00;99.90;;;;;;5083380;28;20131;-82
2023/09/24 08:33:40;;;;;;;3.53;2.40;;;17.00;99.90;;;;;;5076380;28;20047;-81
2023/09/24 08:36:10;;;;;;;2.83;1.90;;;17.00;99.90;;;;;;5082671;28;20456;-81
2023/09/24 08:38:38;;;;;;;4.63;1.73;;;17.10;99.90;;;;;;5078209;28;20068;-82
2023/09/24 08:41:12;;;;;;;3.15;1.95;;;17.10;99.90;;;;;;5081971;28;20048;-82
2023/09/24 08:43:41;;;;;;;3.85;1.52;;;17.10;99.90;;;;;;5076299;28;22493;-81
2023/09/24 08:46:10;;;;;;;2.80;1.77;;;17.10;99.90;;;;;;5078280;28;20084;-81
2023/09/24 08:48:42;;;;;;;3.63;2.33;;;17.20;99.90;;;;;;5080999;28;20056;-80
2023/09/24 08:51:10;;;;;;;2.67;1.77;;;17.20;99.90;;;;;;5068494;28;20082;-82
2023/09/24 08:53:39;;;;;;;3.10;2.15;;;17.30;99.90;;;;;;5063493;28;20041;-81
2023/09/24 08:56:08;;;;;;;3.75;2.08;;;17.30;99.90;;;;;;5064013;28;20101;-81
2023/09/24 08:58:38;;;;;;;6.82;2.90;;;17.20;99.90;;;;;;5072112;28;20041;-80
2023/09/24 09:01:09;;;;;;;4.00;2.38;;;17.20;99.90;;;;;;5066469;28;20147;-81
2023/09/24 09:03:37;;;;;;;4.57;2.38;;;17.20;99.90;;;;;;5073908;28;20064;-80
2023/09/24 09:06:06;;;;;;;4.07;2.47;;;17.20;99.90;;;;;;5068846;28;20044;-79
2023/09/24 09:08:52;;;;;;;3.63;2.05;;;17.20;99.90;;;;;;5067806;28;20396;-80
2023/09/24 09:11:22;;;;;;;5.03;3.25;;;17.30;99.90;;;;;;5064644;28;20048;-79
2023/09/24 09:13:50;;;;;;;5.32;3.10;;;17.30;99.90;;;;;;5073379;28;20036;-79
2023/09/24 09:16:20;;;;;;;3.70;2.80;;;17.30;99.90;;;;;;5076958;28;20036;-80
2023/09/24 09:19:01;;;;;;;4.70;3.15;;;17.30;99.90;;;;;;5091303;28;20466;-78
2023/09/24 09:21:29;;;;;;;3.90;2.88;;;17.30;99.90;;;;;;5076492;28;20482;-80
2023/09/24 09:23:57;;;;;;;5.47;3.50;;;17.30;99.90;;;;;;5089237;28;20067;-78
2023/09/24 09:26:30;;;;;;;6.05;3.47;;;17.20;99.90;;;;;;5081438;28;20113;-79
2023/09/24 09:28:57;;;;;;;4.30;2.20;;;17.30;99.90;;;;;;5065430;28;20048;-79
2023/09/24 09:31:24;;;;;;;2.65;1.30;;;17.20;99.90;;;;;;5078494;28;20514;-82
2023/09/24 09:33:54;;;;;;;2.03;1.08;;;17.20;99.90;;;;;;5067932;28;20400;-79
2023/09/24 09:36:30;;;;;;;1.15;0.80;;;17.20;99.90;;;;;;5072841;28;20128;-79
2023/09/24 09:38:58;;;;;;;3.05;1.20;;;17.20;99.90;;;;;;5079096;28;20083;-80
2023/09/24 09:41:26;;;;;;;1.95;0.95;;;17.30;99.90;;;;;;5076330;28;20063;-80
2023/09/24 09:43:57;;;;;;;1.30;0.80;;;17.30;99.90;;;;;;5074240;28;20036;-83
2023/09/24 09:46:25;;;;;;;1.52;0.73;;;17.20;99.90;;;;;;5067392;28;20055;-81
2023/09/24 09:49:07;;;;;;;1.33;0.80;;;17.20;99.90;;;;;;5059003;28;20051;-79
2023/09/24 09:51:54;;;;;;;1.92;0.77;;;17.30;99.90;;;;;;5071365;28;20047;-80
2023/09/24 09:54:23;;;;;;;2.78;0.93;;;17.40;99.90;;;;;;5062841;28;20498;-78
2023/09/24 09:56:51;;;;;;;2.03;0.95;;;17.50;99.90;;;;;;5096814;28;20035;-79
2023/09/24 09:59:20;;;;;;;1.20;0.85;;;17.60;99.90;;;;;;5057625;28;22656;-80
2023/09/24 10:01:48;;;;;;;1.42;0.73;;;17.50;99.90;;;;;;5091175;28;20955;-79
2023/09/24 10:04:15;;;;;;;1.70;0.90;;;17.70;99.90;;;;;;5071950;28;20055;-79
2023/09/24 10:06:43;;;;;;;3.42;1.17;;;17.70;99.90;;;;;;5092554;27;20078;-79
2023/09/24 10:09:32;;;;;;;1.67;0.90;;;17.70;99.90;;;;;;5074157;28;20135;-80
2023/09/24 10:12:01;;;;;;;1.55;0.90;;;17.70;99.90;;;;;;5059049;28;20388;-79
2023/09/24 10:14:34;;;;;;;1.77;0.90;;;17.60;99.90;;;;;;5066546;28;22477;-79
2023/09/24 10:17:17;;;;;;;1.38;1.00;;;17.60;99.90;;;;;;5057571;28;20044;-79
2023/09/24 10:19:51;;;;;;;1.95;0.80;;;17.70;99.90;;;;;;5078265;28;20098;-79
2023/09/24 10:22:34;;;;;;;1.20;0.73;;;17.70;99.90;;;;;;5079370;28;20037;-79
2023/09/24 10:25:22;;;;;;;1.92;0.90;;;17.70;99.90;;;;;;5075554;28;22600;-79
2023/09/24 10:28:05;;;;;;;1.58;0.90;;;17.70;99.90;;;;;;5086891;28;20490;-78
2023/09/24 10:31:03;;;;;;;1.38;1.10;;;17.70;99.90;;;;;;5066475;28;20226;-79
2023/09/24 10:33:52;;;;;;;1.42;0.90;;;17.70;99.90;;;;;;5077926;28;20062;-79
2023/09/24 10:36:23;;;;;;;1.10;0.73;;;17.80;99.90;;;;;;5070251;28;20056;-79
2023/09/24 10:39:10;;;;;;;3.28;1.42;;;17.80;99.90;;;;;;5082335;28;20066;-79
2023/09/24 10:42:09;;;;;;;2.25;1.27;;;17.80;99.90;;;;;;5076243;28;20106;-84
2023/09/24 10:44:37;;;;;;;1.92;1.05;;;17.80;99.90;;;;;;5069640;28;20071;-80
2023/09/24 10:47:30;;;;;;;1.92;1.10;;;17.90;99.90;;;;;;5083518;28;20132;-79
2023/09/24 10:50:18;;;;;;;1.25;0.90;;;17.90;99.90;;;;;;5058726;28;20059;-82
2023/09/24 10:52:49;;;;;;;3.60;1.10;;;18.00;99.90;;;;;;5076647;28;20118;-79
2023/09/24 10:55:17;;;;;;;1.70;1.60;;;18.00;99.90;;;;;;5081529;28;20113;-79
2023/09/24 10:57:46;;;;;;;4.97;2.30;;;17.90;99.90;;;;;;5073230;28;20041;-79
2023/09/24 11:00:18;;;;;;;2.15;1.17;;;18.00;99.90;;;;;;5069413;28;20060;-80
2023/09/24 11:02:45;;;;;;;3.42;1.83;;;18.00;99.90;;;;;;5073609;28;20075;-79
2023/09/24 11:05:13;;;;;;;4.93;2.25;;;18.00;99.90;;;;;;5096746;28;20040;-81
2023/09/24 11:07:40;;;;;;;2.42;1.33;;;18.00;99.90;;;;;;5082814;28;20056;-79
2023/09/24 11:10:08;;;;;;;2.05;0.90;;;17.90;99.90;;;;;;5079886;28;20036;-79
2023/09/24 11:12:35;;;;;;;2.33;0.77;;;17.90;99.90;;;;;;5090168;28;20080;-79
2023/09/24 11:15:03;;;;;;;1.67;0.60;;;17.90;99.90;;;;;;5057078;28;20040;-78
2023/09/24 11:17:45;;;;;;;1.70;0.90;;;17.90;99.90;;;;;;5066356;28;20045;-80
2023/09/24 11:20:13;;;;;;;1.20;0.70;;;17.80;99.90;;;;;;5062974;28;20534;-78
2023/09/24 11:22:40;;;;;;;1.65;0.90;;;17.90;99.90;;;;;;5073665;28;20048;-79
2023/09/24 11:25:09;;;;;;;2.50;1.33;;;17.90;99.90;;;;;;5068232;28;20052;-79
2023/09/24 11:27:58;;;;;;;2.03;1.20;;;17.80;99.90;;;;;;5082945;28;21590;-81
2023/09/24 11:30:42;;;;;;;4.68;1.40;;;17.80;99.90;;;;;;5076125;28;20044;-78
2023/09/24 11:33:18;;;;;;;1.77;1.13;;;17.90;99.90;;;;;;5057908;28;20036;-79
2023/09/24 11:35:46;;;;;;;2.65;1.08;;;17.80;99.90;;;;;;5082867;28;20080;-79
2023/09/24 11:38:25;;;;;;;1.60;0.70;;;17.70;99.90;;;;;;5076242;28;20040;-79
2023/09/24 11:40:52;;;;;;;2.40;1.00;;;17.60;99.90;;;;;;5090796;28;20044;-79
2023/09/24 11:43:19;;;;;;;1.67;0.98;;;17.60;99.90;;;;;;5066015;28;20043;-81
2023/09/24 11:45:55;;;;;;;0.90;0.70;;;17.50;99.90;;;;;;5061807;28;20048;-81
2023/09/24 11:48:27;;;;;;;2.88;0.60;;;17.60;99.90;;;;;;5077556;28;20131;-81
2023/09/24 11:51:03;;;;;;;2.55;0.80;;;17.60;99.90;;;;;;5095851;27;20052;-83
2023/09/24 11:53:30;;;;;;;1.77;0.50;;;17.60;99.90;;;;;;5057197;28;20040;-84
2023/09/24 11:55:59;;;;;;;1.67;0.55;;;17.60;99.90;;;;;;5015241;28;20079;-80
2023/09/24 11:58:27;;;;;;;1.13;0.30;;;17.50;99.90;;;;;;5005450;28;20076;-81
2023/09/24 12:00:57;;;;;;;2.72;0.40;;;17.60;99.90;;;;;;5047798;28;20562;-83
2023/09/24 12:03:26;;;;;;;1.27;0.40;;;17.50;99.90;;;;;;5015501;28;20746;-81
2023/09/24 12:05:53;;;;;;;2.17;0.45;;;17.50;99.90;;;;;;5020841;28;20419;-80
2023/09/24 12:08:22;;;;;;;1.38;0.30;;;17.50;99.90;;;;;;5030756;28;20056;-85
2023/09/24 12:10:52;;;;;;;0.82;0.32;;;17.40;99.90;;;;;;5016193;28;22189;-84
2023/09/24 12:13:20;;;;;;;0.85;0.20;;;17.40;99.90;;;;;;5045022;28;20483;-81
2023/09/24 12:15:48;;;;;;;1.02;0.20;;;17.40;99.90;;;;;;5009366;28;20062;-82
2023/09/24 12:18:16;;;;;;;2.85;1.10;;;17.40;99.90;;;;;;5002903;28;20215;-80
2023/09/24 12:20:43;;;;;;;1.15;0.40;;;17.40;99.90;;;;;;5043945;27;20048;-80
2023/09/24 12:23:11;;;;;;;1.63;0.30;;;17.40;99.90;;;;;;5045052;28;20056;-80
2023/09/24 12:25:42;;;;;;;0.50;0.20;;;17.40;99.90;;;;;;4997592;28;20190;-81
2023/09/24 12:28:11;;;;;;;10.35;1.00;;;17.30;99.90;;;;;;5046277;28;20056;-80
2023/09/24 12:30:39;;;;;;;0.40;0.20;;;17.30;99.90;;;;;;5003403;28;20051;-85
2023/09/24 12:33:07;;;;;;;1.50;0.30;;;17.30;99.90;;;;;;5029713;28;20039;-84
2023/09/24 12:35:41;;;;;;;0.50;0.20;;;17.30;99.90;;;;;;5027612;28;20606;-82
2023/09/24 12:38:10;;;;;;;0.35;0.10;;;17.40;99.90;;;;;;5006867;28;20453;-83
2023/09/24 12:40:37;;;;;;;0.40;0.20;;;17.30;99.90;;;;;;5007904;28;20131;-81
2023/09/24 12:43:04;;;;;;;0.57;0.22;;;17.30;99.90;;;;;;5094060;28;20706;-80
2023/09/24 12:45:32;;;;;;;0.45;0.20;;;17.30;99.90;;;;;;5048231;28;20048;-80
2023/09/24 12:48:00;;;;;;;1.40;0.20;;;17.40;99.90;;;;;;5073292;28;20052;-82
2023/09/24 12:50:28;;;;;;;0.60;0.20;;;17.40;99.90;;;;;;5082970;28;20052;-81
2023/09/24 12:52:56;;;;;;;0.47;0.10;;;17.40;99.90;;;;;;5065155;28;20060;-82
2023/09/24 12:55:25;;;;;;;0.43;0.20;;;17.40;99.90;;;;;;5063767;28;20129;-80
2023/09/24 12:57:53;;;;;;;2.58;0.20;;;17.30;99.90;;;;;;5049086;28;20055;-82